createdAt,value
2019-05-11T00:00:50.363Z,2.75
2019-05-11T00:03:22.309Z,3.47
2019-05-11T00:05:54.044Z,2.20
2019-05-11T00:08:25.611Z,5.03
2019-05-11T00:10:57.821Z,5.78
2019-05-11T00:13:29.127Z,5.12
2019-05-11T00:16:00.524Z,3.65
2019-05-11T00:18:33.242Z,3.02
2019-05-11T00:21:05.301Z,3.37
2019-05-11T00:23:37.121Z,3.10
2019-05-11T00:26:08.733Z,3.70
2019-05-11T00:28:40.639Z,3.42
2019-05-11T00:33:42.078Z,4.17
2019-05-11T00:36:14.202Z,4.33
2019-05-11T00:38:45.521Z,4.25
2019-05-11T00:41:16.862Z,3.77
2019-05-11T00:43:48.169Z,3.72
2019-05-11T00:46:19.540Z,3.02
2019-05-11T00:48:50.897Z,2.37
2019-05-11T00:51:22.794Z,4.70
2019-05-11T00:56:25.054Z,2.58
2019-05-11T01:01:26.303Z,2.75
2019-05-11T01:03:58.099Z,2.80
2019-05-11T01:06:30.958Z,3.50
2019-05-11T01:09:02.367Z,2.87
2019-05-11T01:11:33.933Z,2.52
2019-05-11T01:14:05.329Z,2.50
2019-05-11T01:16:36.621Z,3.25
2019-05-11T01:19:07.916Z,2.60
2019-05-11T01:21:39.748Z,2.58
2019-05-11T01:26:41.128Z,2.22
2019-05-11T01:29:12.485Z,2.70
2019-05-11T01:31:43.862Z,2.62
2019-05-11T01:34:15.591Z,2.80
2019-05-11T01:39:18.002Z,1.98
2019-05-11T01:41:49.783Z,2.72
2019-05-11T01:46:51.429Z,2.33
2019-05-11T01:49:22.778Z,3.33
2019-05-11T01:51:54.041Z,3.17
2019-05-11T01:54:26.146Z,3.47
2019-05-11T01:56:57.528Z,1.72
2019-05-11T01:59:28.835Z,1.95
2019-05-11T02:02:00.407Z,5.90
2019-05-11T02:04:31.707Z,2.52
2019-05-11T02:07:03.690Z,2.35
2019-05-11T02:12:04.839Z,2.00
2019-05-11T02:14:36.074Z,2.10
2019-05-11T02:17:07.370Z,2.70
2019-05-11T02:19:38.586Z,2.52
2019-05-11T02:22:09.812Z,1.80
2019-05-11T02:24:41.126Z,3.00
2019-05-11T02:27:12.716Z,2.02
2019-05-11T02:29:44.285Z,2.65
2019-05-11T02:32:15.553Z,1.57
2019-05-11T02:34:46.824Z,1.65
2019-05-11T02:37:18.494Z,1.45
2019-05-11T02:39:49.771Z,2.10
2019-05-11T02:42:21.030Z,2.58
2019-05-11T02:44:52.839Z,2.58
2019-05-11T02:47:24.029Z,2.00
2019-05-11T02:49:55.845Z,2.12
2019-05-11T02:54:58.832Z,2.05
2019-05-11T02:57:30.565Z,1.90
2019-05-11T03:00:02.642Z,1.60
2019-05-11T03:02:35.347Z,2.40
2019-05-11T03:05:07.413Z,1.85
2019-05-11T03:07:40.248Z,1.57
2019-05-11T03:10:11.592Z,1.67
2019-05-11T03:12:43.160Z,1.92
2019-05-11T03:15:14.355Z,2.47
2019-05-11T03:17:45.744Z,1.77
2019-05-11T03:20:17.330Z,1.50
2019-05-11T03:22:48.659Z,1.80
2019-05-11T03:25:19.840Z,2.58
2019-05-11T03:27:51.304Z,1.55
2019-05-11T03:30:22.922Z,1.32
2019-05-11T03:32:54.214Z,2.35
2019-05-11T03:35:25.714Z,2.50
2019-05-11T03:37:57.790Z,1.95
2019-05-11T03:40:29.023Z,2.05
2019-05-11T03:43:00.611Z,2.08
2019-05-11T03:45:32.351Z,1.90
2019-05-11T03:50:34.235Z,3.08
2019-05-11T03:53:06.421Z,3.37
2019-05-11T03:55:37.717Z,2.75
2019-05-11T03:58:09.309Z,1.67
2019-05-11T04:00:40.975Z,1.75
2019-05-11T04:03:12.522Z,2.77
2019-05-11T04:05:43.792Z,2.17
2019-05-11T04:08:15.096Z,2.10
2019-05-11T04:10:46.620Z,1.80
2019-05-11T04:13:18.836Z,2.62
2019-05-11T04:15:50.069Z,2.02
2019-05-11T04:18:21.429Z,3.12
2019-05-11T04:20:53.120Z,1.57
2019-05-11T04:23:24.335Z,1.98
2019-05-11T04:25:55.590Z,2.42
2019-05-11T04:28:26.838Z,1.82
2019-05-11T04:30:58.435Z,2.02
2019-05-11T04:33:33.057Z,2.75
2019-05-11T04:36:02.875Z,2.12
2019-05-11T04:38:34.397Z,1.20
2019-05-11T04:41:05.962Z,2.95
2019-05-11T04:43:37.851Z,5.15
2019-05-11T04:48:39.016Z,2.52
2019-05-11T04:51:10.179Z,3.08
2019-05-11T04:53:41.536Z,3.67
2019-05-11T04:56:12.918Z,3.17
2019-05-11T04:58:44.116Z,4.20
2019-05-11T05:01:15.366Z,2.72
2019-05-11T05:03:47.562Z,4.33
2019-05-11T05:06:22.484Z,3.22
2019-05-11T05:08:52.852Z,1.62
2019-05-11T05:11:24.049Z,2.12
2019-05-11T05:13:55.224Z,2.80
2019-05-11T05:16:26.509Z,1.62
2019-05-11T05:18:57.774Z,1.62
2019-05-11T05:21:29.675Z,2.83
2019-05-11T05:26:31.359Z,2.87
2019-05-11T05:29:02.643Z,2.37
2019-05-11T05:31:33.860Z,2.30
2019-05-11T05:34:05.167Z,2.12
2019-05-11T05:36:36.451Z,3.95
2019-05-11T05:39:09.351Z,2.35
2019-05-11T05:41:42.491Z,3.17
2019-05-11T05:44:14.209Z,3.65
2019-05-11T05:46:45.802Z,2.33
2019-05-11T05:49:17.007Z,3.02
2019-05-11T05:51:48.304Z,3.02
2019-05-11T05:54:20.076Z,2.58
2019-05-11T05:56:51.294Z,4.35
2019-05-11T05:59:22.611Z,3.80
2019-05-11T06:01:53.976Z,2.72
2019-05-11T06:04:25.231Z,5.15
2019-05-11T06:06:56.443Z,3.77
2019-05-11T06:09:27.699Z,2.00
2019-05-11T06:11:59.225Z,4.05
2019-05-11T06:14:30.599Z,3.22
2019-05-11T06:17:02.176Z,3.75
2019-05-11T06:19:33.480Z,4.45
2019-05-11T06:22:04.727Z,2.52
2019-05-11T06:24:36.562Z,2.67
2019-05-11T06:29:37.682Z,3.15
2019-05-11T06:32:08.897Z,4.03
2019-05-11T06:34:40.452Z,2.65
2019-05-11T06:37:11.665Z,2.33
2019-05-11T06:39:42.860Z,4.92
2019-05-11T06:42:14.056Z,3.83
2019-05-11T06:44:45.919Z,4.55
2019-05-11T06:49:47.419Z,3.72
2019-05-11T06:52:18.727Z,4.30
2019-05-11T06:54:50.207Z,4.05
2019-05-11T06:57:21.773Z,3.12
2019-05-11T06:59:53.633Z,2.83
2019-05-11T07:02:24.862Z,5.92
2019-05-11T07:04:56.176Z,4.40
2019-05-11T07:07:27.352Z,2.98
2019-05-11T07:09:58.942Z,1.92
2019-05-11T07:12:30.106Z,2.55
2019-05-11T07:15:01.625Z,4.42
2019-05-11T07:17:34.697Z,4.15
2019-05-11T07:22:36.614Z,3.95
2019-05-11T07:25:08.332Z,2.67
2019-05-11T07:30:11.014Z,2.87
2019-05-11T07:32:42.182Z,2.85
2019-05-11T07:35:13.815Z,3.45
2019-05-11T07:37:47.719Z,2.00
2019-05-11T07:40:18.922Z,4.15
2019-05-11T07:42:50.307Z,2.45
2019-05-11T07:45:21.886Z,2.98
2019-05-11T07:47:53.518Z,2.37
2019-05-11T07:50:28.305Z,2.42
2019-05-11T07:53:00.385Z,2.42
2019-05-11T07:55:31.919Z,2.62
2019-05-11T07:58:03.743Z,2.22
2019-05-11T08:03:09.016Z,2.00
2019-05-11T08:05:40.779Z,1.90
2019-05-11T08:08:12.227Z,3.08
2019-05-11T08:10:43.814Z,2.62
2019-05-11T08:13:17.722Z,2.05
2019-05-11T08:15:49.036Z,1.72
2019-05-11T08:18:20.324Z,3.02
2019-05-11T08:20:52.411Z,2.22
2019-05-11T08:23:23.637Z,3.30
2019-05-11T08:25:54.913Z,3.72
2019-05-11T08:28:28.759Z,2.37
2019-05-11T08:31:00.151Z,2.47
2019-05-11T08:33:31.707Z,2.85
2019-05-11T08:36:03.325Z,3.10
2019-05-11T08:38:34.853Z,2.30
2019-05-11T08:41:08.054Z,1.98
2019-05-11T08:43:39.841Z,1.47
2019-05-11T08:46:11.180Z,4.67
2019-05-11T08:48:42.698Z,3.95
2019-05-11T08:51:14.494Z,3.08
2019-05-11T08:53:48.063Z,2.75
2019-05-11T08:56:19.135Z,2.33
2019-05-11T08:58:50.315Z,4.83
2019-05-11T09:01:21.816Z,158.32
2019-05-11T09:03:53.055Z,385.30
2019-05-11T09:06:24.446Z,376.18
2019-05-11T09:08:58.154Z,504.90
2019-05-11T09:11:28.849Z,424.58
2019-05-11T09:14:01.121Z,238.45
2019-05-11T09:16:33.018Z,164.37
2019-05-11T09:21:35.324Z,78.97
2019-05-11T09:24:08.470Z,63.00
2019-05-11T09:26:39.541Z,57.17
2019-05-11T09:29:10.869Z,31.20
2019-05-11T09:31:42.130Z,12.70
2019-05-11T09:34:13.366Z,16.05
2019-05-11T09:36:44.987Z,12.35
2019-05-11T09:39:17.717Z,13.98
2019-05-11T09:41:49.730Z,17.00
2019-05-11T09:44:21.249Z,13.68
2019-05-11T09:46:53.267Z,11.00
2019-05-11T09:49:42.767Z,7.95
2019-05-11T09:51:59.130Z,7.50
2019-05-11T09:54:30.937Z,6.45
2019-05-11T09:57:02.151Z,4.67
2019-05-11T09:59:33.654Z,3.40
2019-05-11T10:02:05.202Z,4.70
2019-05-11T10:04:38.058Z,2.83
2019-05-11T10:07:09.888Z,3.12
2019-05-11T10:09:41.370Z,3.25
2019-05-11T10:12:12.937Z,2.05
2019-05-11T10:14:44.379Z,1.90
2019-05-11T10:17:18.283Z,3.87
2019-05-11T10:19:50.002Z,3.83
2019-05-11T10:22:22.286Z,3.15
2019-05-11T10:24:54.291Z,2.15
2019-05-11T10:27:27.893Z,3.62
2019-05-11T10:29:59.637Z,3.35
2019-05-11T10:32:30.942Z,3.77
2019-05-11T10:35:02.653Z,7.37
2019-05-11T10:37:34.246Z,32.05
2019-05-11T10:40:05.648Z,74.30
2019-05-11T10:42:38.298Z,71.33
2019-05-11T10:45:10.017Z,51.60
2019-05-11T10:47:41.185Z,29.48
2019-05-11T10:50:12.715Z,33.73
2019-05-11T10:52:44.248Z,27.32
2019-05-11T10:55:15.654Z,24.92
2019-05-11T10:57:48.764Z,16.52
2019-05-11T11:00:21.806Z,15.08
2019-05-11T11:02:53.500Z,8.10
2019-05-11T11:05:25.027Z,4.03
2019-05-11T11:07:58.658Z,6.22
2019-05-11T11:10:29.410Z,3.35
2019-05-11T11:13:00.668Z,3.50
2019-05-11T11:15:32.436Z,3.87
2019-05-11T11:18:03.685Z,4.42
2019-05-11T11:20:34.910Z,2.90
2019-05-11T11:23:08.800Z,2.70
2019-05-11T11:25:41.872Z,2.20
2019-05-11T11:30:48.723Z,1.77
2019-05-11T11:33:24.264Z,2.05
2019-05-11T11:35:57.803Z,2.40
2019-05-11T11:38:29.517Z,1.70
2019-05-11T11:41:01.554Z,2.83
2019-05-11T11:43:32.896Z,2.90
2019-05-11T11:46:04.353Z,4.00
2019-05-11T11:48:35.616Z,2.15
2019-05-11T11:51:08.109Z,2.92
2019-05-11T11:53:40.010Z,2.37
2019-05-11T11:56:11.257Z,3.17
2019-05-11T11:58:42.747Z,1.30
2019-05-11T12:01:14.618Z,1.95
2019-05-11T12:06:18.147Z,2.85
2019-05-11T12:08:49.864Z,2.85
2019-05-11T12:11:21.151Z,2.02
2019-05-11T12:13:52.395Z,3.00
2019-05-11T12:16:23.651Z,2.08
2019-05-11T12:18:55.211Z,1.67
2019-05-11T12:21:27.714Z,1.55
2019-05-11T12:23:59.205Z,2.50
2019-05-11T12:26:30.855Z,5.17
2019-05-11T12:29:02.495Z,2.98
2019-05-11T12:31:34.129Z,2.42
2019-05-11T12:34:08.524Z,4.85
2019-05-11T12:36:39.385Z,2.72
2019-05-11T12:39:10.649Z,2.62
2019-05-11T12:41:42.130Z,3.02
2019-05-11T12:44:13.895Z,2.25
2019-05-11T12:49:18.476Z,2.70
2019-05-11T12:51:49.312Z,3.12
2019-05-11T12:54:20.537Z,3.22
2019-05-11T12:56:52.094Z,3.12
2019-05-11T12:59:23.894Z,2.90
2019-05-11T13:04:28.018Z,2.95
2019-05-11T13:06:59.334Z,2.08
2019-05-11T13:09:30.944Z,1.47
2019-05-11T13:12:02.215Z,0.95
2019-05-11T13:14:33.636Z,2.40
2019-05-11T13:19:28.240Z,1.05
2019-05-11T13:22:00.002Z,1.95
2019-05-11T13:24:31.755Z,1.52
2019-05-11T13:27:03.022Z,2.92
2019-05-11T13:29:37.771Z,2.55
2019-05-11T13:32:09.062Z,1.90
2019-05-11T13:34:41.087Z,1.47
2019-05-11T13:37:13.094Z,0.80
2019-05-11T13:39:44.878Z,4.75
2019-05-11T13:42:16.797Z,2.20
2019-05-11T13:44:48.140Z,3.22
2019-05-11T13:47:20.002Z,0.55
2019-05-11T13:52:33.616Z,3.35
2019-05-11T13:55:07.626Z,3.10
2019-05-11T13:57:41.515Z,1.05
2019-05-11T14:00:17.524Z,1.75
2019-05-11T14:02:49.336Z,0.82
2019-05-11T14:05:21.120Z,1.27
2019-05-11T14:07:52.703Z,0.40
2019-05-11T14:10:24.288Z,1.02
2019-05-11T14:12:58.097Z,2.47
2019-05-11T14:15:29.522Z,0.82
2019-05-11T14:18:07.750Z,1.07
2019-05-11T14:20:34.417Z,0.40
2019-05-11T14:23:07.738Z,0.80
2019-05-11T14:25:40.241Z,1.55
2019-05-11T14:28:11.654Z,1.27
2019-05-11T14:30:43.882Z,0.60
2019-05-11T14:33:17.981Z,1.67
2019-05-11T14:35:49.241Z,2.15
2019-05-11T14:38:20.971Z,1.90
2019-05-11T14:43:23.523Z,2.80
2019-05-11T14:45:55.314Z,2.17
2019-05-11T14:48:30.259Z,4.22
2019-05-11T14:51:00.932Z,1.17
2019-05-11T14:53:32.573Z,1.22
2019-05-11T14:56:04.148Z,1.07
2019-05-11T14:58:35.727Z,1.65
2019-05-11T15:01:08.811Z,1.05
2019-05-11T15:03:40.582Z,1.62
2019-05-11T15:06:12.394Z,1.12
2019-05-11T15:11:14.054Z,1.40
2019-05-11T15:13:45.672Z,1.32
2019-05-11T15:16:18.781Z,1.47
2019-05-11T15:18:50.218Z,1.42
2019-05-11T15:21:21.859Z,1.30
2019-05-11T15:23:54.333Z,2.10
2019-05-11T15:26:27.643Z,1.90
2019-05-11T15:28:59.181Z,3.90
2019-05-11T15:34:00.558Z,2.55
2019-05-11T15:36:31.927Z,1.40
2019-05-11T15:39:03.203Z,1.95
2019-05-11T15:41:35.431Z,2.20
2019-05-11T15:44:11.379Z,2.60
2019-05-11T15:46:40.977Z,1.60
2019-05-11T15:49:12.594Z,2.27
2019-05-11T15:51:44.593Z,2.20
2019-05-11T15:54:18.302Z,2.62
2019-05-11T15:56:49.330Z,1.65
2019-05-11T15:59:20.907Z,1.92
2019-05-11T16:01:54.571Z,2.08
2019-05-11T16:04:27.963Z,1.17
2019-05-11T16:07:00.137Z,1.77
2019-05-11T16:09:31.822Z,1.12
2019-05-11T16:12:03.828Z,1.02
2019-05-11T16:14:38.212Z,0.85
2019-05-11T16:17:08.839Z,1.32
2019-05-11T16:19:41.222Z,0.93
2019-05-11T16:22:13.698Z,1.00
2019-05-11T16:24:45.642Z,2.25
2019-05-11T16:27:18.276Z,2.00
2019-05-11T16:29:49.879Z,1.65
2019-05-11T16:32:21.723Z,1.27
2019-05-11T16:34:53.889Z,1.32
2019-05-11T16:37:25.537Z,1.92
2019-05-11T16:39:58.287Z,1.50
2019-05-11T16:42:30.584Z,2.55
2019-05-11T16:45:02.598Z,1.07
2019-05-11T16:47:35.523Z,0.80
2019-05-11T16:50:08.669Z,0.80
2019-05-11T16:52:41.039Z,0.80
2019-05-11T16:55:12.381Z,2.05
2019-05-11T16:57:47.993Z,1.27
2019-05-11T17:00:19.133Z,1.70
2019-05-11T17:02:50.882Z,1.25
2019-05-11T17:05:27.229Z,3.65
2019-05-11T17:07:58.755Z,1.15
2019-05-11T17:10:30.277Z,1.62
2019-05-11T17:13:02.338Z,1.47
2019-05-11T17:15:33.701Z,2.37
2019-05-11T17:18:05.130Z,2.40
2019-05-11T17:20:36.491Z,2.05
2019-05-11T17:23:08.500Z,2.67
2019-05-11T17:25:40.306Z,0.80
2019-05-11T17:30:41.934Z,2.33
2019-05-11T17:33:13.280Z,1.12
2019-05-11T17:35:45.009Z,1.75
2019-05-11T17:38:18.606Z,1.42
2019-05-11T17:40:52.134Z,0.88
2019-05-11T17:43:23.427Z,0.47
2019-05-11T17:45:58.376Z,1.65
2019-05-11T17:48:29.187Z,0.82
2019-05-11T17:51:00.834Z,1.32
2019-05-11T17:56:02.490Z,0.88
2019-05-11T17:58:35.038Z,2.05
2019-05-11T18:01:09.184Z,1.05
2019-05-11T18:03:40.071Z,1.40
2019-05-11T18:08:41.926Z,511.23
2019-05-11T18:11:13.364Z,306.40
2019-05-11T18:13:44.822Z,203.67
2019-05-11T18:16:18.546Z,226.15
2019-05-11T18:18:49.467Z,168.97
2019-05-11T18:21:20.935Z,174.68
2019-05-11T18:23:52.229Z,125.20
2019-05-11T18:26:23.508Z,73.80
2019-05-11T18:28:55.359Z,54.13
2019-05-11T18:33:58.089Z,23.75
2019-05-11T18:36:29.641Z,16.30
2019-05-11T18:39:01.138Z,9.23
2019-05-11T18:41:34.210Z,7.83
2019-05-11T18:44:08.026Z,5.28
2019-05-11T18:46:39.095Z,3.22
2019-05-11T18:51:40.704Z,3.30
2019-05-11T18:54:12.075Z,2.02
2019-05-11T18:56:43.496Z,1.70
2019-05-11T18:59:14.702Z,1.80
2019-05-11T19:01:48.499Z,1.07
2019-05-11T19:04:19.618Z,1.75
2019-05-11T19:06:50.914Z,2.50
2019-05-11T19:09:22.404Z,0.65
2019-05-11T19:11:54.018Z,1.95
2019-05-11T19:14:28.005Z,0.70
2019-05-11T19:16:58.925Z,2.45
2019-05-11T19:19:30.497Z,2.58
2019-05-11T19:22:02.203Z,0.88
2019-05-11T19:24:33.873Z,1.02
2019-05-11T19:27:07.947Z,1.45
2019-05-11T19:29:38.785Z,0.85
2019-05-11T19:32:11.281Z,1.42
2019-05-11T19:34:42.600Z,1.72
2019-05-11T19:37:14.107Z,0.65
2019-05-11T19:39:48.432Z,2.27
2019-05-11T19:42:18.911Z,1.00
2019-05-11T19:44:50.832Z,1.27
2019-05-11T19:49:52.468Z,1.00
2019-05-11T19:52:24.002Z,0.62
2019-05-11T19:54:57.775Z,1.47
2019-05-11T19:57:29.069Z,0.45
2019-05-11T20:00:00.379Z,0.90
2019-05-11T20:02:32.342Z,0.98
2019-05-11T20:07:33.880Z,0.95
2019-05-11T20:10:07.529Z,1.87
2019-05-11T20:12:41.455Z,1.35
2019-05-11T20:15:11.738Z,1.02
2019-05-11T20:17:43.971Z,2.00
2019-05-11T20:20:18.068Z,1.10
2019-05-11T20:22:48.847Z,1.47
2019-05-11T20:25:20.151Z,1.02
2019-05-11T20:27:51.528Z,0.85
2019-05-11T20:30:22.861Z,0.82
2019-05-11T20:32:54.411Z,0.85
2019-05-11T20:35:27.758Z,1.40
2019-05-11T20:37:59.113Z,1.52
2019-05-11T20:40:31.210Z,1.10
2019-05-11T20:43:03.830Z,1.22
2019-05-11T20:45:37.699Z,0.82
2019-05-11T20:48:09.600Z,2.10
2019-05-11T20:50:40.845Z,0.90
2019-05-11T20:53:12.977Z,0.80
2019-05-11T20:55:44.711Z,0.90
2019-05-11T20:58:18.980Z,0.78
2019-05-11T21:00:49.180Z,0.98
2019-05-11T21:03:20.626Z,5.28
2019-05-11T21:05:52.222Z,1.82
2019-05-11T21:08:24.118Z,2.77
2019-05-11T21:10:55.463Z,2.10
2019-05-11T21:13:28.239Z,2.25
2019-05-11T21:16:00.166Z,1.60
2019-05-11T21:18:32.511Z,1.98
2019-05-11T21:21:03.849Z,1.00
2019-05-11T21:23:37.664Z,1.22
2019-05-11T21:26:09.943Z,1.42
2019-05-11T21:28:41.379Z,1.32
2019-05-11T21:31:13.108Z,1.15
2019-05-11T21:36:17.991Z,1.10
2019-05-11T21:38:49.428Z,1.00
2019-05-11T21:41:20.907Z,1.22
2019-05-11T21:43:52.790Z,3.47
2019-05-11T21:48:54.285Z,1.12
2019-05-11T21:51:25.619Z,1.77
2019-05-11T21:53:57.827Z,1.10
2019-05-11T21:56:29.980Z,1.42
2019-05-11T21:59:01.417Z,2.85
2019-05-11T22:01:33.839Z,2.47
2019-05-11T22:04:05.540Z,0.95
2019-05-11T22:09:10.352Z,0.50
2019-05-11T22:11:41.696Z,1.95
2019-05-11T22:14:13.454Z,1.55
2019-05-11T22:19:17.795Z,2.27
2019-05-11T22:21:49.636Z,1.05
2019-05-11T22:24:21.177Z,1.87
2019-05-11T22:26:52.920Z,0.72
2019-05-11T22:29:25.361Z,1.20
2019-05-11T22:31:58.142Z,1.87
2019-05-11T22:34:30.246Z,1.32
2019-05-11T22:37:01.971Z,1.62
2019-05-11T22:39:33.313Z,0.95
2019-05-11T22:42:05.013Z,1.17
2019-05-11T22:49:41.279Z,1.67
2019-05-11T22:52:13.019Z,2.27
2019-05-11T22:57:16.336Z,1.82
2019-05-11T22:59:48.259Z,1.27
2019-05-11T23:02:19.684Z,2.10
2019-05-11T23:04:51.093Z,1.00
2019-05-11T23:07:22.803Z,3.08
2019-05-11T23:12:25.226Z,0.70
2019-05-11T23:15:11.441Z,0.80
2019-05-11T23:17:43.153Z,0.93
2019-05-11T23:20:14.883Z,0.88
2019-05-11T23:25:21.576Z,0.85
2019-05-11T23:30:23.401Z,1.00
2019-05-11T23:32:54.770Z,1.47
2019-05-11T23:35:28.400Z,1.70
2019-05-11T23:37:59.600Z,2.15
2019-05-11T23:40:31.375Z,1.00
2019-05-11T23:43:02.682Z,2.12
2019-05-11T23:45:34.479Z,0.80
2019-05-11T23:50:38.372Z,1.67
2019-05-11T23:53:10.407Z,1.10
2019-05-11T23:55:42.032Z,0.68
2019-05-11T23:58:13.484Z,1.05
